sensor_id;sensor_type;location;lat;lon;timestamp;pressure;altitude;pressure_sealevel;temperature;humidity
42105;BME280;68365;51.472;5.712;2023-04-07T00:01:49;101230.50;;;16.29;100.00
42105;BME280;68365;51.472;5.712;2023-04-07T00:04:15;101225.81;;;16.24;100.00
42105;BME280;68365;51.472;5.712;2023-04-07T00:06:40;101226.78;;;16.23;100.00
42105;BME280;68365;51.472;5.712;2023-04-07T00:09:08;101233.47;;;16.26;100.00
42105;BME280;68365;51.472;5.712;2023-04-07T00:11:36;101228.44;;;16.24;100.00
42105;BME280;68365;51.472;5.712;2023-04-07T00:14:02;101232.84;;;16.24;100.00
42105;BME280;68365;51.472;5.712;2023-04-07T00:16:28;101226.97;;;16.22;100.00
42105;BME280;68365;51.472;5.712;2023-04-07T00:18:54;101225.19;;;16.22;100.00
42105;BME280;68365;51.472;5.712;2023-04-07T00:21:19;101231.22;;;16.23;100.00
42105;BME280;68365;51.472;5.712;2023-04-07T00:23:45;101233.22;;;16.21;100.00
42105;BME280;68365;51.472;5.712;2023-04-07T00:26:12;101227.19;;;16.20;100.00
42105;BME280;68365;51.472;5.712;2023-04-07T00:28:38;101235.03;;;16.20;100.00
42105;BME280;68365;51.472;5.712;2023-04-07T00:31:03;101234.41;;;16.18;100.00
42105;BME280;68365;51.472;5.712;2023-04-07T00:33:29;101223.94;;;16.18;100.00
42105;BME280;68365;51.472;5.712;2023-04-07T00:35:55;101230.94;;;16.18;100.00
42105;BME280;68365;51.472;5.712;2023-04-07T00:38:23;101228.72;;;16.15;100.00
42105;BME280;68365;51.472;5.712;2023-04-07T00:40:48;101223.09;;;16.18;100.00
42105;BME280;68365;51.472;5.712;2023-04-07T00:43:15;101227.69;;;16.16;100.00
42105;BME280;68365;51.472;5.712;2023-04-07T00:45:41;101221.47;;;16.17;100.00
42105;BME280;68365;51.472;5.712;2023-04-07T00:48:07;101218.41;;;16.13;100.00
42105;BME280;68365;51.472;5.712;2023-04-07T00:50:34;101217.78;;;16.11;100.00
42105;BME280;68365;51.472;5.712;2023-04-07T00:53:00;101215.34;;;16.09;100.00
42105;BME280;68365;51.472;5.712;2023-04-07T00:55:27;101219.59;;;16.11;100.00
42105;BME280;68365;51.472;5.712;2023-04-07T00:57:52;101218.97;;;16.08;100.00
42105;BME280;68365;51.472;5.712;2023-04-07T01:00:19;101209.47;;;16.07;100.00
42105;BME280;68365;51.472;5.712;2023-04-07T01:02:54;101211.47;;;16.05;100.00
42105;BME280;68365;51.472;5.712;2023-04-07T01:08:41;101222.41;;;16.09;100.00
42105;BME280;68365;51.472;5.712;2023-04-07T01:11:26;101233.88;;;16.08;100.00
42105;BME280;68365;51.472;5.712;2023-04-07T01:13:53;101232.25;;;16.07;100.00
42105;BME280;68365;51.472;5.712;2023-04-07T01:16:45;101235.88;;;16.06;100.00
42105;BME280;68365;51.472;5.712;2023-04-07T01:19:42;101236.69;;;16.06;100.00
42105;BME280;68365;51.472;5.712;2023-04-07T01:22:15;101231.78;;;16.03;100.00
42105;BME280;68365;51.472;5.712;2023-04-07T01:30:17;101249.13;;;16.04;100.00
42105;BME280;68365;51.472;5.712;2023-04-07T01:32:49;101241.47;;;16.03;100.00
42105;BME280;68365;51.472;5.712;2023-04-07T01:35:17;101240.03;;;16.00;100.00
42105;BME280;68365;51.472;5.712;2023-04-07T01:37:44;101246.06;;;16.01;100.00
42105;BME280;68365;51.472;5.712;2023-04-07T01:40:14;101239.84;;;16.02;100.00
42105;BME280;68365;51.472;5.712;2023-04-07T01:42:42;101250.31;;;16.02;100.00
42105;BME280;68365;51.472;5.712;2023-04-07T01:45:09;101245.25;;;16.00;100.00
42105;BME280;68365;51.472;5.712;2023-04-07T01:47:36;101248.06;;;15.99;100.00
42105;BME280;68365;51.472;5.712;2023-04-07T01:50:03;101248.06;;;15.99;100.00
42105;BME280;68365;51.472;5.712;2023-04-07T01:52:32;101245.59;;;15.97;100.00
42105;BME280;68365;51.472;5.712;2023-04-07T01:55:01;101247.25;;;15.98;100.00
42105;BME280;68365;51.472;5.712;2023-04-07T01:57:28;101251.84;;;15.96;100.00
42105;BME280;68365;51.472;5.712;2023-04-07T01:59:53;101250.22;;;15.95;100.00
42105;BME280;68365;51.472;5.712;2023-04-07T02:02:20;101254.47;;;15.96;100.00
42105;BME280;68365;51.472;5.712;2023-04-07T02:04:56;101252.41;;;15.92;100.00
42105;BME280;68365;51.472;5.712;2023-04-07T02:08:19;101255.66;;;15.94;100.00
42105;BME280;68365;51.472;5.712;2023-04-07T02:10:27;101253.03;;;15.94;100.00
42105;BME280;68365;51.472;5.712;2023-04-07T02:12:55;101254.66;;;15.95;100.00
42105;BME280;68365;51.472;5.712;2023-04-07T02:15:22;101253.03;;;15.94;100.00
42105;BME280;68365;51.472;5.712;2023-04-07T02:17:52;101248.94;;;15.91;100.00
42105;BME280;68365;51.472;5.712;2023-04-07T02:20:19;101258.63;;;15.91;100.00
42105;BME280;68365;51.472;5.712;2023-04-07T02:22:46;101255.84;;;15.92;100.00
42105;BME280;68365;51.472;5.712;2023-04-07T02:25:21;101259.63;;;15.89;100.00
42105;BME280;68365;51.472;5.712;2023-04-07T02:27:47;101261.25;;;15.91;100.00
42105;BME280;68365;51.472;5.712;2023-04-07T02:30:13;101254.75;;;15.86;100.00
42105;BME280;68365;51.472;5.712;2023-04-07T02:32:39;101258.00;;;15.88;100.00
42105;BME280;68365;51.472;5.712;2023-04-07T02:35:06;101256.56;;;15.86;100.00
42105;BME280;68365;51.472;5.712;2023-04-07T02:37:32;101262.25;;;15.89;100.00
42105;BME280;68365;51.472;5.712;2023-04-07T02:39:57;101257.53;;;15.85;100.00
42105;BME280;68365;51.472;5.712;2023-04-07T02:42:23;101259.97;;;15.86;100.00
42105;BME280;68365;51.472;5.712;2023-04-07T02:44:50;101259.97;;;15.86;100.00
42105;BME280;68365;51.472;5.712;2023-04-07T02:47:15;101263.41;;;15.87;100.00
42105;BME280;68365;51.472;5.712;2023-04-07T02:49:41;101267.03;;;15.86;100.00
42105;BME280;68365;51.472;5.712;2023-04-07T02:52:07;101265.22;;;15.86;100.00
42105;BME280;68365;51.472;5.712;2023-04-07T02:54:33;101269.63;;;15.86;100.00
42105;BME280;68365;51.472;5.712;2023-04-07T02:56:59;101258.38;;;15.85;100.00
42105;BME280;68365;51.472;5.712;2023-04-07T02:59:25;101259.34;;;15.84;100.00
42105;BME280;68365;51.472;5.712;2023-04-07T03:01:51;101265.38;;;15.85;100.00
42105;BME280;68365;51.472;5.712;2023-04-07T03:04:17;101267.03;;;15.86;100.00
42105;BME280;68365;51.472;5.712;2023-04-07T03:06:42;101257.91;;;15.82;100.00
42105;BME280;68365;51.472;5.712;2023-04-07T03:09:08;101266.22;;;15.85;100.00
42105;BME280;68365;51.472;5.712;2023-04-07T03:11:34;101260.53;;;15.82;100.00
42105;BME280;68365;51.472;5.712;2023-04-07T03:14:00;101258.88;;;15.81;100.00
42105;BME280;68365;51.472;5.712;2023-04-07T03:16:26;101255.63;;;15.79;100.00
42105;BME280;68365;51.472;5.712;2023-04-07T03:18:52;101251.41;;;15.78;100.00
42105;BME280;68365;51.472;5.712;2023-04-07T03:21:17;101266.56;;;15.82;100.00
42105;BME280;68365;51.472;5.712;2023-04-07T03:23:43;101263.16;;;15.82;100.00
42105;BME280;68365;51.472;5.712;2023-04-07T03:26:09;101271.16;;;15.80;100.00
42105;BME280;68365;51.472;5.712;2023-04-07T03:28:38;101265.13;;;15.80;100.00
42105;BME280;68365;51.472;5.712;2023-04-07T03:31:04;101260.06;;;15.78;100.00
42105;BME280;68365;51.472;5.712;2023-04-07T03:33:30;101259.09;;;15.79;100.00
42105;BME280;68365;51.472;5.712;2023-04-07T03:35:55;101264.50;;;15.78;100.00
42105;BME280;68365;51.472;5.712;2023-04-07T03:38:22;101267.28;;;15.76;100.00
42105;BME280;68365;51.472;5.712;2023-04-07T03:40:47;101263.22;;;15.74;100.00
42105;BME280;68365;51.472;5.712;2023-04-07T03:43:13;101261.25;;;15.76;100.00
42105;BME280;68365;51.472;5.712;2023-04-07T03:45:41;101253.41;;;15.76;100.00
42105;BME280;68365;51.472;5.712;2023-04-07T03:48:07;101258.00;;;15.74;100.00
42105;BME280;68365;51.472;5.712;2023-04-07T03:50:40;101254.38;;;15.75;100.00
42105;BME280;68365;51.472;5.712;2023-04-07T03:53:08;101265.69;;;15.75;100.00
42105;BME280;68365;51.472;5.712;2023-04-07T03:55:34;101259.94;;;15.72;100.00
42105;BME280;68365;51.472;5.712;2023-04-07T03:58:00;101267.66;;;15.73;100.00
42105;BME280;68365;51.472;5.712;2023-04-07T04:00:26;101264.22;;;15.73;100.00
42105;BME280;68365;51.472;5.712;2023-04-07T04:02:52;101255.56;;;15.72;100.00
42105;BME280;68365;51.472;5.712;2023-04-07T04:05:18;101261.59;;;15.73;100.00
42105;BME280;68365;51.472;5.712;2023-04-07T04:07:44;101258.97;;;15.73;100.00
42105;BME280;68365;51.472;5.712;2023-04-07T04:10:10;101270.28;;;15.73;100.00
42105;BME280;68365;51.472;5.712;2023-04-07T04:12:35;101269.44;;;15.73;100.00
42105;BME280;68365;51.472;5.712;2023-04-07T04:15:01;101273.88;;;15.72;100.00
42105;BME280;68365;51.472;5.712;2023-04-07T04:17:27;101272.91;;;15.73;100.00
42105;BME280;68365;51.472;5.712;2023-04-07T04:19:53;101273.03;;;15.72;100.00
42105;BME280;68365;51.472;5.712;2023-04-07T04:22:19;101270.28;;;15.73;100.00
42105;BME280;68365;51.472;5.712;2023-04-07T04:24:45;101271.25;;;15.72;100.00
42105;BME280;68365;51.472;5.712;2023-04-07T04:27:11;101276.50;;;15.72;100.00
42105;BME280;68365;51.472;5.712;2023-04-07T04:29:37;101272.41;;;15.69;100.00
42105;BME280;68365;51.472;5.712;2023-04-07T04:32:03;101276.84;;;15.69;100.00
42105;BME280;68365;51.472;5.712;2023-04-07T04:34:29;101273.38;;;15.68;100.00
42105;BME280;68365;51.472;5.712;2023-04-07T04:36:55;101271.78;;;15.67;100.00
42105;BME280;68365;51.472;5.712;2023-04-07T04:39:20;101274.38;;;15.67;100.00
42105;BME280;68365;51.472;5.712;2023-04-07T04:41:46;101275.19;;;15.68;100.00
42105;BME280;68365;51.472;5.712;2023-04-07T04:44:12;101278.34;;;15.63;100.00
42105;BME280;68365;51.472;5.712;2023-04-07T04:46:38;101291.44;;;15.63;100.00
42105;BME280;68365;51.472;5.712;2023-04-07T04:49:03;101285.19;;;15.64;100.00
42105;BME280;68365;51.472;5.712;2023-04-07T04:51:29;101280.97;;;15.63;100.00
42105;BME280;68365;51.472;5.712;2023-04-07T04:53:58;101285.41;;;15.63;100.00
42105;BME280;68365;51.472;5.712;2023-04-07T04:56:25;101294.69;;;15.65;100.00
42105;BME280;68365;51.472;5.712;2023-04-07T04:58:51;101296.84;;;15.62;100.00
42105;BME280;68365;51.472;5.712;2023-04-07T05:01:16;101300.72;;;15.66;100.00
42105;BME280;68365;51.472;5.712;2023-04-07T05:03:43;101307.78;;;15.65;100.00
42105;BME280;68365;51.472;5.712;2023-04-07T05:06:09;101315.00;;;15.63;100.00
42105;BME280;68365;51.472;5.712;2023-04-07T05:08:34;101309.75;;;15.63;100.00
42105;BME280;68365;51.472;5.712;2023-04-07T05:11:00;101306.69;;;15.60;100.00
42105;BME280;68365;51.472;5.712;2023-04-07T05:13:26;101313.19;;;15.64;100.00
42105;BME280;68365;51.472;5.712;2023-04-07T05:15:52;101313.34;;;15.62;100.00
42105;BME280;68365;51.472;5.712;2023-04-07T05:18:19;101310.94;;;15.61;100.00
42105;BME280;68365;51.472;5.712;2023-04-07T05:20:47;101318.59;;;15.62;100.00
42105;BME280;68365;51.472;5.712;2023-04-07T05:23:13;101312.09;;;15.58;100.00
42105;BME280;68365;51.472;5.712;2023-04-07T05:25:38;101316.34;;;15.59;100.00
42105;BME280;68365;51.472;5.712;2023-04-07T05:28:05;101314.53;;;15.60;100.00
42105;BME280;68365;51.472;5.712;2023-04-07T05:30:31;101322.38;;;15.60;100.00
42105;BME280;68365;51.472;5.712;2023-04-07T05:32:57;101319.13;;;15.58;100.00
42105;BME280;68365;51.472;5.712;2023-04-07T05:35:23;101331.88;;;15.61;100.00
42105;BME280;68365;51.472;5.712;2023-04-07T05:37:48;101325.16;;;15.58;100.00
42105;BME280;68365;51.472;5.712;2023-04-07T05:40:14;101328.16;;;15.55;100.00
42105;BME280;68365;51.472;5.712;2023-04-07T05:42:40;101335.47;;;15.60;100.00
42105;BME280;68365;51.472;5.712;2023-04-07T05:45:08;101332.84;;;15.60;100.00
42105;BME280;68365;51.472;5.712;2023-04-07T05:47:34;101332.84;;;15.60;100.00
42105;BME280;68365;51.472;5.712;2023-04-07T05:50:00;101344.94;;;15.61;100.00
42105;BME280;68365;51.472;5.712;2023-04-07T05:52:26;101351.97;;;15.60;100.00
42105;BME280;68365;51.472;5.712;2023-04-07T05:54:52;101346.28;;;15.57;100.00
42105;BME280;68365;51.472;5.712;2023-04-07T05:57:17;101345.13;;;15.59;100.00
42105;BME280;68365;51.472;5.712;2023-04-07T05:59:43;101348.72;;;15.58;100.00
42105;BME280;68365;51.472;5.712;2023-04-07T06:02:09;101348.91;;;15.57;100.00
42105;BME280;68365;51.472;5.712;2023-04-07T06:04:35;101343.69;;;15.57;100.00
42105;BME280;68365;51.472;5.712;2023-04-07T06:07:04;101359.19;;;15.58;100.00
42105;BME280;68365;51.472;5.712;2023-04-07T06:09:30;101357.56;;;15.57;100.00
42105;BME280;68365;51.472;5.712;2023-04-07T06:11:56;101359.00;;;15.60;100.00
42105;BME280;68365;51.472;5.712;2023-04-07T06:14:22;101354.16;;;15.57;100.00
42105;BME280;68365;51.472;5.712;2023-04-07T06:16:49;101362.63;;;15.59;100.00
42105;BME280;68365;51.472;5.712;2023-04-07T06:19:15;101358.22;;;15.59;100.00
42105;BME280;68365;51.472;5.712;2023-04-07T06:21:41;101368.69;;;15.59;100.00
42105;BME280;68365;51.472;5.712;2023-04-07T06:24:07;101365.25;;;15.59;100.00
42105;BME280;68365;51.472;5.712;2023-04-07T06:26:32;101364.16;;;15.53;100.00
42105;BME280;68365;51.472;5.712;2023-04-07T06:28:59;101376.69;;;15.58;100.00
42105;BME280;68365;51.472;5.712;2023-04-07T06:31:25;101373.09;;;15.59;100.00
42105;BME280;68365;51.472;5.712;2023-04-07T06:33:51;101375.09;;;15.57;100.00
42105;BME280;68365;51.472;5.712;2023-04-07T06:36:17;101378.50;;;15.57;100.00
42105;BME280;68365;51.472;5.712;2023-04-07T06:38:45;101379.13;;;15.59;100.00
42105;BME280;68365;51.472;5.712;2023-04-07T06:41:11;101381.13;;;15.57;100.00
42105;BME280;68365;51.472;5.712;2023-04-07T06:43:43;101369.22;;;15.55;100.00
42105;BME280;68365;51.472;5.712;2023-04-07T06:46:08;101383.56;;;15.59;100.00
42105;BME280;68365;51.472;5.712;2023-04-07T06:48:34;101382.28;;;15.55;100.00
42105;BME280;68365;51.472;5.712;2023-04-07T06:51:00;101388.97;;;15.57;100.00
42105;BME280;68365;51.472;5.712;2023-04-07T06:53:26;101391.75;;;15.56;100.00
42105;BME280;68365;51.472;5.712;2023-04-07T06:56:03;101389.13;;;15.56;100.00
42105;BME280;68365;51.472;5.712;2023-04-07T06:58:29;101388.34;;;15.55;100.00
42105;BME280;68365;51.472;5.712;2023-04-07T07:00:55;101388.50;;;15.54;100.00
42105;BME280;68365;51.472;5.712;2023-04-07T07:03:20;101395.19;;;15.56;100.00
42105;BME280;68365;51.472;5.712;2023-04-07T07:05:46;101401.41;;;15.55;100.00
42105;BME280;68365;51.472;5.712;2023-04-07T07:08:12;101398.81;;;15.55;100.00
42105;BME280;68365;51.472;5.712;2023-04-07T07:10:38;101401.88;;;15.59;100.00
42105;BME280;68365;51.472;5.712;2023-04-07T07:13:03;101400.25;;;15.58;100.00
42105;BME280;68365;51.472;5.712;2023-04-07T07:15:29;101408.25;;;15.56;100.00
42105;BME280;68365;51.472;5.712;2023-04-07T07:17:55;101408.09;;;15.58;100.00
42105;BME280;68365;51.472;5.712;2023-04-07T07:20:21;101404.66;;;15.57;100.00
42105;BME280;68365;51.472;5.712;2023-04-07T07:22:48;101413.50;;;15.56;100.00
42105;BME280;68365;51.472;5.712;2023-04-07T07:25:15;101417.91;;;15.56;100.00
42105;BME280;68365;51.472;5.712;2023-04-07T07:27:41;101417.13;;;15.55;100.00
42105;BME280;68365;51.472;5.712;2023-04-07T07:30:07;101426.59;;;15.56;100.00
42105;BME280;68365;51.472;5.712;2023-04-07T07:32:33;101418.28;;;15.53;100.00
42105;BME280;68365;51.472;5.712;2023-04-07T07:34:59;101423.97;;;15.56;100.00
42105;BME280;68365;51.472;5.712;2023-04-07T07:37:25;101423.78;;;15.58;100.00
42105;BME280;68365;51.472;5.712;2023-04-07T07:39:51;101424.59;;;15.58;100.00
42105;BME280;68365;51.472;5.712;2023-04-07T07:42:17;101430.47;;;15.60;100.00
42105;BME280;68365;51.472;5.712;2023-04-07T07:44:43;101425.06;;;15.62;100.00
42105;BME280;68365;51.472;5.712;2023-04-07T07:47:09;101431.75;;;15.64;100.00
42105;BME280;68365;51.472;5.712;2023-04-07T07:49:34;101425.53;;;15.65;100.00
42105;BME280;68365;51.472;5.712;2023-04-07T07:52:00;101435.00;;;15.66;100.00
42105;BME280;68365;51.472;5.712;2023-04-07T07:54:27;101433.22;;;15.67;100.00
42105;BME280;68365;51.472;5.712;2023-04-07T07:56:52;101433.88;;;15.69;100.00
42105;BME280;68365;51.472;5.712;2023-04-07T07:59:18;101438.09;;;15.70;100.00
42105;BME280;68365;51.472;5.712;2023-04-07T08:01:44;101440.53;;;15.72;100.00
42105;BME280;68365;51.472;5.712;2023-04-07T08:04:10;101442.19;;;15.73;100.00
42105;BME280;68365;51.472;5.712;2023-04-07T08:06:35;101447.41;;;15.73;100.00
42105;BME280;68365;51.472;5.712;2023-04-07T08:09:02;101451.00;;;15.72;100.00
42105;BME280;68365;51.472;5.712;2023-04-07T08:11:28;101455.91;;;15.75;100.00
42105;BME280;68365;51.472;5.712;2023-04-07T08:13:55;101456.75;;;15.75;100.00
42105;BME280;68365;51.472;5.712;2023-04-07T08:16:21;101453.94;;;15.77;100.00
42105;BME280;68365;51.472;5.712;2023-04-07T08:18:48;101456.56;;;15.77;100.00
42105;BME280;68365;51.472;5.712;2023-04-07T08:21:14;101461.63;;;15.78;100.00
42105;BME280;68365;51.472;5.712;2023-04-07T08:23:40;101460.97;;;15.76;100.00
42105;BME280;68365;51.472;5.712;2023-04-07T08:26:06;101467.03;;;15.77;100.00
42105;BME280;68365;51.472;5.712;2023-04-07T08:28:31;101462.44;;;15.79;100.00
42105;BME280;68365;51.472;5.712;2023-04-07T08:30:57;101468.66;;;15.78;100.00
42105;BME280;68365;51.472;5.712;2023-04-07T08:33:23;101467.50;;;15.80;100.00
42105;BME280;68365;51.472;5.712;2023-04-07T08:35:50;101475.34;;;15.80;100.00
42105;BME280;68365;51.472;5.712;2023-04-07T08:38:16;101477.63;;;15.83;100.00
42105;BME280;68365;51.472;5.712;2023-04-07T08:40:42;101477.81;;;15.82;100.00
42105;BME280;68365;51.472;5.712;2023-04-07T08:43:09;101462.72;;;15.84;100.00
42105;BME280;68365;51.472;5.712;2023-04-07T08:45:39;101471.94;;;15.80;100.00
42105;BME280;68365;51.472;5.712;2023-04-07T08:48:17;101480.75;;;15.79;100.00
42105;BME280;68365;51.472;5.712;2023-04-07T08:50:48;101472.47;;;15.75;100.00
42105;BME280;68365;51.472;5.712;2023-04-07T08:53:28;101479.47;;;15.75;100.00
42105;BME280;68365;51.472;5.712;2023-04-07T08:55:57;101481.28;;;15.74;100.00
42105;BME280;68365;51.472;5.712;2023-04-07T08:58:23;101488.34;;;15.74;100.00
42105;BME280;68365;51.472;5.712;2023-04-07T09:00:49;101479.66;;;15.73;100.00
42105;BME280;68365;51.472;5.712;2023-04-07T09:03:16;101482.09;;;15.75;100.00
42105;BME280;68365;51.472;5.712;2023-04-07T09:05:45;101487.53;;;15.73;100.00
42105;BME280;68365;51.472;5.712;2023-04-07T09:08:11;101497.63;;;15.76;100.00
42105;BME280;68365;51.472;5.712;2023-04-07T09:10:37;101500.06;;;15.78;100.00
42105;BME280;68365;51.472;5.712;2023-04-07T09:13:03;101497.28;;;15.79;100.00
42105;BME280;68365;51.472;5.712;2023-04-07T09:15:30;101492.22;;;15.78;100.00
42105;BME280;68365;51.472;5.712;2023-04-07T09:17:57;101494.22;;;15.76;100.00
42105;BME280;68365;51.472;5.712;2023-04-07T09:20:24;101489.59;;;15.78;100.00
42105;BME280;68365;51.472;5.712;2023-04-07T09:22:50;101496.81;;;15.76;100.00
42105;BME280;68365;51.472;5.712;2023-04-07T09:25:23;101497.63;;;15.76;100.00
42105;BME280;68365;51.472;5.712;2023-04-07T09:28:00;101504.69;;;15.76;100.00
42105;BME280;68365;51.472;5.712;2023-04-07T09:30:29;101503.03;;;15.75;100.00
42105;BME280;68365;51.472;5.712;2023-04-07T09:32:56;101497.78;;;15.75;100.00
42105;BME280;68365;51.472;5.712;2023-04-07T09:35:22;101499.59;;;15.74;100.00
42105;BME280;68365;51.472;5.712;2023-04-07T09:38:08;101499.59;;;15.74;100.00
42105;BME280;68365;51.472;5.712;2023-04-07T09:40:35;101493.56;;;15.74;100.00
42105;BME280;68365;51.472;5.712;2023-04-07T09:43:04;101511.34;;;15.78;100.00
42105;BME280;68365;51.472;5.712;2023-04-07T09:45:31;101502.63;;;15.86;100.00
42105;BME280;68365;51.472;5.712;2023-04-07T09:47:57;101507.22;;;15.84;100.00
42105;BME280;68365;51.472;5.712;2023-04-07T09:50:43;101510.75;;;15.68;100.00
42105;BME280;68365;51.472;5.712;2023-04-07T09:53:16;101507.69;;;15.56;100.00
42105;BME280;68365;51.472;5.712;2023-04-07T09:55:44;101510.06;;;15.74;100.00
42105;BME280;68365;51.472;5.712;2023-04-07T09:58:17;101514.72;;;15.87;100.00
42105;BME280;68365;51.472;5.712;2023-04-07T10:00:43;101509.50;;;15.87;100.00
42105;BME280;68365;51.472;5.712;2023-04-07T10:03:10;101506.53;;;15.90;100.00
42105;BME280;68365;51.472;5.712;2023-04-07T10:05:38;101510.03;;;15.82;100.00
42105;BME280;68365;51.472;5.712;2023-04-07T10:08:05;101515.91;;;15.84;100.00
42105;BME280;68365;51.472;5.712;2023-04-07T10:10:31;101510.66;;;15.84;100.00
42105;BME280;68365;51.472;5.712;2023-04-07T10:12:58;101505.97;;;15.80;100.00
42105;BME280;68365;51.472;5.712;2023-04-07T10:15:24;101503.66;;;15.77;100.00
42105;BME280;68365;51.472;5.712;2023-04-07T10:17:50;101514.97;;;15.77;100.00
42105;BME280;68365;51.472;5.712;2023-04-07T10:20:19;101517.94;;;15.74;100.00
42105;BME280;68365;51.472;5.712;2023-04-07T10:22:48;101519.91;;;15.72;100.00
42105;BME280;68365;51.472;5.712;2023-04-07T10:25:19;101517.41;;;15.70;100.00
42105;BME280;68365;51.472;5.712;2023-04-07T10:27:51;101523.81;;;15.76;100.00
42105;BME280;68365;51.472;5.712;2023-04-07T10:30:30;101522.53;;;15.72;100.00
42105;BME280;68365;51.472;5.712;2023-04-07T10:32:57;101525.94;;;15.73;100.00
42105;BME280;68365;51.472;5.712;2023-04-07T10:35:23;101529.53;;;15.72;100.00
42105;BME280;68365;51.472;5.712;2023-04-07T10:40:38;101528.56;;;15.73;100.00
42105;BME280;68365;51.472;5.712;2023-04-07T10:43:06;101525.28;;;15.70;100.00
42105;BME280;68365;51.472;5.712;2023-04-07T10:48:17;101537.25;;;15.73;100.00
42105;BME280;68365;51.472;5.712;2023-04-07T10:53:35;101534.44;;;15.75;100.00
42105;BME280;68365;51.472;5.712;2023-04-07T10:56:01;101535.59;;;15.72;100.00
42105;BME280;68365;51.472;5.712;2023-04-07T10:58:33;101538.22;;;15.72;100.00
42105;BME280;68365;51.472;5.712;2023-04-07T11:03:26;101551.78;;;15.76;100.00
42105;BME280;68365;51.472;5.712;2023-04-07T11:06:12;101555.69;;;15.80;100.00
42105;BME280;68365;51.472;5.712;2023-04-07T11:08:45;101556.66;;;15.79;100.00
42105;BME280;68365;51.472;5.712;2023-04-07T11:11:14;101549.66;;;15.79;100.00
42105;BME280;68365;51.472;5.712;2023-04-07T11:16:07;101547.84;;;15.80;100.00
42105;BME280;68365;51.472;5.712;2023-04-07T11:18:35;101557.13;;;15.82;100.00
42105;BME280;68365;51.472;5.712;2023-04-07T11:21:02;101550.63;;;15.78;100.00
42105;BME280;68365;51.472;5.712;2023-04-07T11:23:29;101557.94;;;15.83;100.00
42105;BME280;68365;51.472;5.712;2023-04-07T11:26:02;101550.72;;;15.85;100.00
42105;BME280;68365;51.472;5.712;2023-04-07T11:28:29;101558.59;;;15.85;100.00
42105;BME280;68365;51.472;5.712;2023-04-07T11:30:56;101553.19;;;15.86;100.00
42105;BME280;68365;51.472;5.712;2023-04-07T11:33:28;101553.81;;;15.88;100.00
42105;BME280;68365;51.472;5.712;2023-04-07T11:36:00;101544.53;;;15.86;100.00
42105;BME280;68365;51.472;5.712;2023-04-07T11:38:34;101547.41;;;15.91;100.00
42105;BME280;68365;51.472;5.712;2023-04-07T11:41:13;101554.63;;;15.89;100.00
42105;BME280;68365;51.472;5.712;2023-04-07T11:43:40;101553.81;;;15.88;100.00
42105;BME280;68365;51.472;5.712;2023-04-07T11:48:34;101560.06;;;15.87;100.00
42105;BME280;68365;51.472;5.712;2023-04-07T11:51:01;101570.19;;;15.91;100.00
42105;BME280;68365;51.472;5.712;2023-04-07T11:53:32;101572.81;;;15.91;100.00
42105;BME280;68365;51.472;5.712;2023-04-07T11:56:10;101573.97;;;15.88;100.00
42105;BME280;68365;51.472;5.712;2023-04-07T12:01:13;101575.25;;;15.92;100.00
42105;BME280;68365;51.472;5.712;2023-04-07T12:04:01;101577.06;;;15.92;100.00
42105;BME280;68365;51.472;5.712;2023-04-07T12:06:36;101584.38;;;15.96;100.00
42105;BME280;68365;51.472;5.712;2023-04-07T12:09:08;101582.09;;;15.93;100.00
42105;BME280;68365;51.472;5.712;2023-04-07T12:11:34;101583.09;;;15.92;100.00
42105;BME280;68365;51.472;5.712;2023-04-07T12:14:01;101584.91;;;15.92;100.00
42105;BME280;68365;51.472;5.712;2023-04-07T12:16:30;101586.38;;;15.94;100.00
42105;BME280;68365;51.472;5.712;2023-04-07T12:18:56;101592.41;;;15.95;100.00
42105;BME280;68365;51.472;5.712;2023-04-07T12:21:22;101586.53;;;15.93;100.00
42105;BME280;68365;51.472;5.712;2023-04-07T12:23:50;101587.97;;;15.95;100.00
42105;BME280;68365;51.472;5.712;2023-04-07T12:26:16;101595.66;;;15.97;100.00
42105;BME280;68365;51.472;5.712;2023-04-07T12:28:42;101595.66;;;15.97;100.00
42105;BME280;68365;51.472;5.712;2023-04-07T12:31:08;101595.13;;;16.01;100.00
42105;BME280;68365;51.472;5.712;2023-04-07T12:33:35;101598.28;;;15.97;100.00
42105;BME280;68365;51.472;5.712;2023-04-07T12:36:01;101593.69;;;15.99;100.00
42105;BME280;68365;51.472;5.712;2023-04-07T12:38:26;101597.59;;;16.03;100.00
42105;BME280;68365;51.472;5.712;2023-04-07T12:40:53;101602.81;;;16.03;100.00
42105;BME280;68365;51.472;5.712;2023-04-07T12:43:19;101608.06;;;16.03;100.00
42105;BME280;68365;51.472;5.712;2023-04-07T12:45:45;101596.47;;;15.97;100.00
42105;BME280;68365;51.472;5.712;2023-04-07T12:48:11;101609.41;;;15.99;100.00
42105;BME280;68365;51.472;5.712;2023-04-07T12:50:37;101606.94;;;15.97;100.00
42105;BME280;68365;51.472;5.712;2023-04-07T12:53:03;101613.72;;;15.92;100.00
42105;BME280;68365;51.472;5.712;2023-04-07T12:55:31;101615.50;;;15.91;100.00
42105;BME280;68365;51.472;5.712;2023-04-07T12:58:00;101619.94;;;15.91;100.00
42105;BME280;68365;51.472;5.712;2023-04-07T13:00:25;101624.34;;;15.90;100.00
42105;BME280;68365;51.472;5.712;2023-04-07T13:02:51;101623.72;;;15.88;100.00
42105;BME280;68365;51.472;5.712;2023-04-07T13:05:18;101622.06;;;15.87;100.00
42105;BME280;68365;51.472;5.712;2023-04-07T13:07:44;101627.50;;;15.85;100.00
42105;BME280;68365;51.472;5.712;2023-04-07T13:10:10;101624.03;;;15.85;100.00